Observations for BIRMINGHAM AIRPORT, United Kingdom (EGBB)

EGBB 221220Z 15007KT 9999 SCT021 BKN030 21/17 Q1018 
EGBB 221150Z 16006KT 120V200 9999 SCT021 BKN036 21/18 Q1019 
EGBB 221120Z 19006KT 150V210 9999 SCT011 BKN016 21/18 Q1019 
EGBB 221050Z 14007KT 9999 BKN011 20/18 Q1019
EGBB 221020Z 15007KT 9999 BKN011 20/18 Q1019
EGBB 220950Z 13008KT 9999 BKN009 20/18 Q1019
EGBB 220920Z 14007KT 9000 BKN009 20/18 Q1019
EGBB 220850Z 15006KT 8000 BKN008 19/18 Q1020
EGBB 220820Z 16005KT 8000 BKN007 18/18 Q1020
EGBB 220750Z 15005KT 120V180 6000 BKN005 17/17 Q1020
EGBB 220720Z 16005KT 2800 BR OVC003 17/17 Q1019 
EGBB 220650Z 14006KT 0600 R15/P1500 FG OVC002 17/17 Q1019   
EGBB 220620Z 15006KT 0400 R15/P1500 FG OVC002 17/17 Q1019   
EGBB 220550Z 15005KT 0200 R15/1000 FG VV/// 17/17 Q1019 
EGBB 220520Z 14004KT 0100 R15/0700 FG VV/// 17/17 Q1019 
EGBB 220450Z 13005KT 0100 R15/0900 FG VV/// 17/17 Q1019 
EGBB 220420Z 14003KT 0150 R33/0750 FG VV/// 17/17 Q1019 
EGBB 220350Z 14005KT 0100 R33/0550 FG VV/// 17/17 Q1019 
EGBB 220320Z 15003KT 0100 R33/0600 FG VV/// 17/17 Q1019 
EGBB 220250Z 16003KT 0100 R33/0450 FG OVC002 17/17 Q1019
EGBB 220220Z 15004KT 0100 R33/0450 FG OVC002 16/16 Q1020
EGBB 220150Z 15002KT 0350 R33/1400 FG OVC002 16/16 Q1020
EGBB 220120Z VRB03KT 1100 R33/P1500 BR MIFG BKN003 16/16 Q1020  
EGBB 220050Z 17004KT 1200 0900N R33/P1500 BR FG MIFG SCT004 16/16 Q1020 
EGBB 220020Z 17003KT 1800 0600SW R15/0650 BR FG MIFG FEW004 15/15 Q1020 
EGBB 212350Z 15003KT 3000 R15/0650 MIFG FEW002 15/15 Q1020  
EGBB 212320Z 16003KT 4000 0350NW R15/0400 FG MIFG FEW002 15/15 Q1020
EGBB 212250Z 15003KT 2000 0400S R15/0650 FG MIFG FEW002 SCT006 15/15 Q1020  
EGBB 212220Z 16003KT 4500 BR SCT003 SCT021 16/16 Q1020  
EGBB 212150Z 12003KT 6000 FEW004 SCT015 16/16 Q1020 
EGBB 212120Z 17002KT 9999 FEW041 17/17 Q1020
EGBB 212050Z 16004KT 9999 FEW032 BKN037 17/17 Q1020 
EGBB 212020Z 16006KT 9999 SCT031 BKN037 17/17 Q1020 
EGBB 211950Z 15004KT 8000 SCT021 BKN034 17/17 Q1020 
EGBB 211920Z 16004KT 8000 -DZ BKN021 18/17 Q1020 RERA REDZ  
EGBB 211850Z 17003KT 4000 DZRA BKN018 18/17 Q1020 RERA REDZ 
EGBB 211820Z 15004KT 9999 SCT022 BKN031 19/17 Q1020 
EGBB 211750Z 18003KT 9999 SCT015 BKN024 19/17 Q1020 
EGBB 211650Z 15005KT 9999 BKN016 19/16 Q1020
EGBB 211620Z 13006KT 9999 SCT012 BKN046 19/16 Q1020 
EGBB 211550Z 18005KT 9999 BKN015 19/16 Q1020
EGBB 211520Z 18005KT 150V210 9999 BKN015 18/16 Q1020
EGBB 211450Z 18004KT 150V220 9999 BKN016 18/16 Q1020
EGBB 211420Z 15006KT 9999 BKN013 18/16 Q1020
EGBB 211350Z 14007KT 9999 BKN011 18/15 Q1021
EGBB 211320Z 14006KT 9999 BKN011 17/15 Q1021
EGBB 211250Z 12006KT 9999 BKN011 17/15 Q1021
EGBB 211220Z 14007KT 9999 BKN010 17/15 Q1021
EGBB 211150Z 12007KT 9999 BKN009 16/15 Q1021